Aquarius Solo Sailor — OL5595 — position and weather

sailwx.info

Track history (hours):
 
Tides and Currents Weather Stations Pressure Air Temp Water Temp Dewpoint Dewpoint Depression Visibility Wind Speed Wind Dir Waves Ship Positions

Aquarius Solo Sailor

Last reported at 2017-Oct-17 15:20 UTC. Time now 2017-Oct-18 20:31 UTC.
Position N 47°44' W 003°22'.

Length 10 m.

Type: Sailing vessel. MMSI: 270037900.

Date/timePositionNaut miles runAvg speedWind from/ knotsBaromVisibWave heightAir tempDewpointWater temp
2017-Oct-17 15:20N 47°44' W 003°22'1 3.4
2017-Oct-17 15:00N 47°43' W 003°22'1 3.0
2017-Oct-17 14:30N 47°41' W 003°22'2 4.0
2017-Oct-17 14:00N 47°39' W 003°23'3 5.5
2017-Oct-17 13:30N 47°37' W 003°25'2 4.6
2017-Oct-17 13:01N 47°36' W 003°28'3 4.7
2017-Oct-17 12:29N 47°38' W 003°30'3 6.0
2017-Oct-17 12:00N 47°40' W 003°29'4 7.0
2017-Oct-17 11:30N 47°40' W 003°24'3 6.6
2017-Oct-17 11:00N 47°38' W 003°21'4 7.7
2017-Oct-17 10:30N 47°34' W 003°20'4 7.9
2017-Oct-17 10:00N 47°30' W 003°18'1 3.0
2017-Oct-17 09:30N 47°31' W 003°18'4 8.0
2017-Oct-17 09:00N 47°35' W 003°19'4 7.8
2017-Oct-17 08:30N 47°39' W 003°21'5 0.2
2017-Oct-16 12:42N 47°44' W 003°22'0 0.0
2017-Oct-16 12:30N 47°44' W 003°22'2 3.7
2017-Oct-16 12:00N 47°42' W 003°23'4 7.4
2017-Oct-16 11:30N 47°42' W 003°28'4 7.6
2017-Oct-16 10:58N 47°43' W 003°34'1 0.6
2017-Oct-16 09:44N 47°44' W 003°34'2 7.0
2017-Oct-16 09:29N 47°43' W 003°32'3 6.8
2017-Oct-16 09:00N 47°42' W 003°28'3 5.6
2017-Oct-16 08:30N 47°41' W 003°23'2 4.0
2017-Oct-16 08:00N 47°43' W 003°22'1 1.1
2017-Oct-16 07:29N 47°44' W 003°22'  
2017-Oct-10 12:46N 47°44' W 003°22'1 2.4
2017-Oct-10 12:30N 47°43' W 003°22'2 4.0
2017-Oct-10 12:00N 47°41' W 003°22'3 6.2
2017-Oct-10 11:30N 47°38' W 003°23'3 6.4
2017-Oct-10 11:00N 47°35' W 003°26'3 6.0
2017-Oct-10 10:30N 47°37' W 003°30'3 5.0
2017-Oct-10 09:57N 47°40' W 003°31'2 4.5
2017-Oct-10 09:30N 47°40' W 003°28'3 6.1
2017-Oct-10 09:00N 47°41' W 003°24'  
Track history (hours):
 
Tides and Currents Weather Stations Pressure Air Temp Water Temp Dewpoint Dewpoint Depression Visibility Wind Speed Wind Dir Waves Ship Positions

Aquarius Solo Sailor

Last reported at 2017-Oct-17 15:20 UTC. Time now 2017-Oct-18 20:31 UTC.
Position N 47°44' W 003°22'.

Length 10 m.

Type: Sailing vessel. MMSI: 270037900.

Date/timePositionNaut miles runAvg speedWind from/ knotsBaromVisibWave heightAir tempDewpointWater temp
2017-Oct-17 15:20N 47°44' W 003°22'1 3.4
2017-Oct-17 15:00N 47°43' W 003°22'1 3.0
2017-Oct-17 14:30N 47°41' W 003°22'2 4.0
2017-Oct-17 14:00N 47°39' W 003°23'3 5.5
2017-Oct-17 13:30N 47°37' W 003°25'2 4.6
2017-Oct-17 13:01N 47°36' W 003°28'3 4.7
2017-Oct-17 12:29N 47°38' W 003°30'3 6.0
2017-Oct-17 12:00N 47°40' W 003°29'4 7.0
2017-Oct-17 11:30N 47°40' W 003°24'3 6.6
2017-Oct-17 11:00N 47°38' W 003°21'4 7.7
2017-Oct-17 10:30N 47°34' W 003°20'4 7.9
2017-Oct-17 10:00N 47°30' W 003°18'1 3.0
2017-Oct-17 09:30N 47°31' W 003°18'4 8.0
2017-Oct-17 09:00N 47°35' W 003°19'4 7.8
2017-Oct-17 08:30N 47°39' W 003°21'5 0.2
2017-Oct-16 12:42N 47°44' W 003°22'0 0.0
2017-Oct-16 12:30N 47°44' W 003°22'2 3.7
2017-Oct-16 12:00N 47°42' W 003°23'4 7.4
2017-Oct-16 11:30N 47°42' W 003°28'4 7.6
2017-Oct-16 10:58N 47°43' W 003°34'1 0.6
2017-Oct-16 09:44N 47°44' W 003°34'2 7.0
2017-Oct-16 09:29N 47°43' W 003°32'3 6.8
2017-Oct-16 09:00N 47°42' W 003°28'3 5.6
2017-Oct-16 08:30N 47°41' W 003°23'2 4.0
2017-Oct-16 08:00N 47°43' W 003°22'1 1.1
2017-Oct-16 07:29N 47°44' W 003°22'  
2017-Oct-10 12:46N 47°44' W 003°22'1 2.4
2017-Oct-10 12:30N 47°43' W 003°22'2 4.0
2017-Oct-10 12:00N 47°41' W 003°22'3 6.2
2017-Oct-10 11:30N 47°38' W 003°23'3 6.4
2017-Oct-10 11:00N 47°35' W 003°26'3 6.0
2017-Oct-10 10:30N 47°37' W 003°30'3 5.0
2017-Oct-10 09:57N 47°40' W 003°31'2 4.5
2017-Oct-10 09:30N 47°40' W 003°28'3 6.1
2017-Oct-10 09:00N 47°41' W 003°24'  

Dump ship's entire track history